Time;durP1;ratioP1;P1;durP2;ratioP2;P2;SDS_P1;SDS_P2;PMS_P1;PMS_P2;Temp;Humidity;BMP_temperature;BMP_pressure;BME280_temperature;BME280_humidity;BME280_pressure;Samples;Min_cycle;Max_cycle;Signal;HPM_P1;HPM_P2
2022/05/02 00:02:21;;;;;;;6.20;3.08;;;;;;;;;;5016565;28;20029;-75
2022/05/02 00:04:47;;;;;;;6.03;3.25;;;;;;;;;;5017479;28;20025;-76
2022/05/02 00:07:13;;;;;;;6.30;3.97;;;;;;;;;;5010655;28;20054;-76
2022/05/02 00:09:39;;;;;;;5.55;4.10;;;;;;;;;;5015092;28;20407;-75
2022/05/02 00:12:05;;;;;;;5.72;4.00;;;;;;;;;;5011031;28;20068;-76
2022/05/02 00:14:31;;;;;;;4.10;3.35;;;;;;;;;;5016110;28;20068;-76
2022/05/02 00:16:57;;;;;;;5.13;3.67;;;;;;;;;;5018726;28;20085;-76
2022/05/02 00:19:23;;;;;;;5.53;3.97;;;;;;;;;;5018246;28;20108;-75
2022/05/02 00:21:49;;;;;;;4.93;3.60;;;;;;;;;;5025428;28;20031;-74
2022/05/02 00:24:15;;;;;;;4.20;3.45;;;;;;;;;;5019278;28;20065;-74
2022/05/02 00:26:41;;;;;;;6.18;3.92;;;;;;;;;;5025981;28;20397;-75
2022/05/02 00:29:07;;;;;;;5.72;3.67;;;;;;;;;;5009669;28;20030;-75
2022/05/02 00:31:33;;;;;;;5.05;3.60;;;;;;;;;;5018004;28;20017;-75
2022/05/02 00:33:59;;;;;;;8.43;4.22;;;;;;;;;;5024832;28;20502;-75
2022/05/02 00:36:26;;;;;;;7.72;3.70;;;;;;;;;;5024187;28;20029;-75
2022/05/02 00:38:52;;;;;;;4.53;3.58;;;;;;;;;;5018773;28;20524;-75
2022/05/02 00:41:19;;;;;;;5.05;3.67;;;;;;;;;;5016199;28;20117;-75
2022/05/02 00:43:45;;;;;;;6.50;3.80;;;;;;;;;;5011013;28;20384;-75
2022/05/02 00:46:23;;;;;;;7.13;3.80;;;;;;;;;;5020692;28;20026;-75
2022/05/02 00:48:49;;;;;;;7.30;3.80;;;;;;;;;;5010385;28;20108;-75
2022/05/02 00:51:15;;;;;;;5.50;3.80;;;;;;;;;;5016304;28;20078;-74
2022/05/02 00:53:42;;;;;;;5.03;3.70;;;;;;;;;;5019712;28;20029;-74
2022/05/02 00:56:08;;;;;;;5.25;3.47;;;;;;;;;;5009704;28;20087;-75
2022/05/02 00:58:35;;;;;;;5.97;3.80;;;;;;;;;;5008902;28;20411;-75
2022/05/02 01:01:01;;;;;;;5.30;4.00;;;;;;;;;;5014455;28;20344;-73
2022/05/02 01:03:27;;;;;;;5.30;3.70;;;;;;;;;;5009078;28;20125;-73
2022/05/02 01:08:39;;;;;;;6.03;3.60;;;;;;;;;;5014886;28;20463;-74
2022/05/02 01:11:05;;;;;;;6.90;4.45;;;;;;;;;;5009850;28;20030;-74
2022/05/02 01:13:38;;;;;;;6.32;4.28;;;;;;;;;;5014061;28;20068;-74
2022/05/02 01:16:07;;;;;;;7.68;4.15;;;;;;;;;;5013216;28;20056;-73
2022/05/02 01:18:33;;;;;;;7.90;4.20;;;;;;;;;;5015140;28;20057;-73
2022/05/02 01:20:59;;;;;;;7.53;3.88;;;;;;;;;;5017023;28;20068;-73
2022/05/02 01:23:25;;;;;;;9.18;5.00;;;;;;;;;;5017694;28;20025;-74
2022/05/02 01:25:51;;;;;;;5.85;4.38;;;;;;;;;;5025079;28;20029;-74
2022/05/02 01:28:17;;;;;;;8.85;4.43;;;;;;;;;;5018113;28;20037;-75
2022/05/02 01:30:43;;;;;;;7.28;4.22;;;;;;;;;;5025645;28;20026;-74
2022/05/02 01:33:10;;;;;;;6.72;3.95;;;;;;;;;;5025516;28;20029;-75
2022/05/02 01:35:36;;;;;;;6.65;4.07;;;;;;;;;;5022544;28;20041;-75
2022/05/02 01:38:02;;;;;;;6.22;4.13;;;;;;;;;;5018781;28;20061;-74
2022/05/02 01:40:28;;;;;;;7.35;4.03;;;;;;;;;;5026763;28;20029;-74
2022/05/02 01:42:54;;;;;;;6.88;4.30;;;;;;;;;;5013483;28;20399;-75
2022/05/02 01:45:20;;;;;;;6.38;4.10;;;;;;;;;;5021716;28;20541;-75
2022/05/02 01:47:46;;;;;;;7.82;4.57;;;;;;;;;;5015320;28;20101;-73
2022/05/02 01:50:12;;;;;;;5.90;3.85;;;;;;;;;;5015442;28;20026;-73
2022/05/02 01:52:38;;;;;;;8.40;3.80;;;;;;;;;;5012622;28;20080;-74
2022/05/02 01:55:04;;;;;;;9.70;4.45;;;;;;;;;;5023690;28;20387;-75
2022/05/02 01:57:30;;;;;;;5.50;4.03;;;;;;;;;;5021812;28;20096;-76
2022/05/02 01:59:56;;;;;;;6.30;4.28;;;;;;;;;;5017502;28;20440;-75
2022/05/02 02:02:22;;;;;;;4.80;3.65;;;;;;;;;;5013854;28;20068;-75
2022/05/02 02:07:33;;;;;;;6.68;4.43;;;;;;;;;;5021907;28;20056;-76
2022/05/02 02:09:59;;;;;;;5.90;4.20;;;;;;;;;;5017798;28;20025;-76
2022/05/02 02:12:24;;;;;;;6.95;4.70;;;;;;;;;;5019867;28;20145;-72
2022/05/02 02:14:50;;;;;;;6.50;4.35;;;;;;;;;;5017566;28;20028;-74
2022/05/02 02:17:16;;;;;;;7.05;4.70;;;;;;;;;;5024354;28;20034;-73
2022/05/02 02:19:42;;;;;;;6.00;4.40;;;;;;;;;;5015047;28;20030;-74
2022/05/02 02:22:17;;;;;;;6.72;4.68;;;;;;;;;;5021651;28;20036;-74
2022/05/02 02:24:45;;;;;;;7.53;4.15;;;;;;;;;;5012175;28;20350;-72
2022/05/02 02:27:11;;;;;;;5.47;4.20;;;;;;;;;;5019381;28;20432;-73
2022/05/02 02:29:37;;;;;;;8.07;4.65;;;;;;;;;;5020980;28;20073;-74
2022/05/02 02:32:03;;;;;;;6.68;4.45;;;;;;;;;;5016607;28;20527;-75
2022/05/02 02:34:29;;;;;;;6.53;4.35;;;;;;;;;;5019415;28;20056;-75
2022/05/02 02:36:55;;;;;;;4.30;3.83;;;;;;;;;;5023232;28;20073;-75
2022/05/02 02:39:20;;;;;;;6.45;3.95;;;;;;;;;;5015404;28;20400;-75
2022/05/02 02:41:46;;;;;;;7.97;4.38;;;;;;;;;;5024106;28;20025;-74
2022/05/02 02:44:12;;;;;;;10.95;4.15;;;;;;;;;;5010010;28;20026;-74
2022/05/02 02:46:41;;;;;;;5.28;4.30;;;;;;;;;;5024346;22;20484;-74
2022/05/02 02:49:13;;;;;;;5.40;4.18;;;;;;;;;;4996898;28;20030;-75
2022/05/02 02:51:39;;;;;;;8.63;5.07;;;;;;;;;;4989023;28;20018;-75
2022/05/02 02:54:05;;;;;;;8.02;4.80;;;;;;;;;;5006743;28;20041;-75
2022/05/02 02:56:31;;;;;;;11.02;4.88;;;;;;;;;;5003090;28;20026;-75
2022/05/02 02:58:56;;;;;;;8.65;4.88;;;;;;;;;;5006567;28;20054;-74
2022/05/02 03:01:23;;;;;;;6.60;4.90;;;;;;;;;;4996422;28;20101;-75
2022/05/02 03:03:49;;;;;;;8.32;4.85;;;;;;;;;;5003632;28;20014;-75
2022/05/02 03:06:15;;;;;;;8.07;5.28;;;;;;;;;;4998015;28;20026;-75
2022/05/02 03:08:41;;;;;;;6.32;4.97;;;;;;;;;;5004817;28;20030;-74
2022/05/02 03:11:08;;;;;;;10.63;4.70;;;;;;;;;;5002620;28;20083;-73
2022/05/02 03:13:36;;;;;;;9.90;5.30;;;;;;;;;;5008097;28;20018;-75
2022/05/02 03:16:03;;;;;;;8.98;5.38;;;;;;;;;;5002154;28;20038;-74
2022/05/02 03:18:29;;;;;;;8.07;4.80;;;;;;;;;;5000856;28;20024;-74
2022/05/02 03:20:55;;;;;;;7.75;5.03;;;;;;;;;;4999415;28;20030;-75
2022/05/02 03:23:21;;;;;;;6.75;4.82;;;;;;;;;;5002732;28;20024;-76
2022/05/02 03:25:47;;;;;;;7.45;5.22;;;;;;;;;;4996557;28;20045;-74
2022/05/02 03:28:13;;;;;;;7.90;5.38;;;;;;;;;;4996962;28;20123;-76
2022/05/02 03:30:40;;;;;;;8.77;6.82;;;;;;;;;;5004871;28;20024;-77
2022/05/02 03:33:06;;;;;;;7.47;5.55;;;;;;;;;;5004443;28;20019;-76
2022/05/02 03:35:32;;;;;;;8.73;5.47;;;;;;;;;;5009160;28;20614;-75
2022/05/02 03:37:58;;;;;;;9.02;5.07;;;;;;;;;;5010347;28;20050;-75
2022/05/02 03:40:24;;;;;;;7.80;5.05;;;;;;;;;;5004935;28;20419;-76
2022/05/02 03:42:50;;;;;;;7.68;5.35;;;;;;;;;;4996837;28;20523;-75
2022/05/02 03:45:16;;;;;;;11.20;5.65;;;;;;;;;;5003146;28;20034;-76
2022/05/02 03:47:42;;;;;;;10.38;5.55;;;;;;;;;;5000026;28;20021;-75
2022/05/02 03:50:08;;;;;;;7.47;5.22;;;;;;;;;;5001226;28;20044;-76
2022/05/02 03:52:34;;;;;;;8.25;5.57;;;;;;;;;;5001763;28;20396;-75
2022/05/02 03:55:00;;;;;;;8.80;4.53;;;;;;;;;;4999993;28;20030;-77
2022/05/02 03:57:26;;;;;;;8.77;4.90;;;;;;;;;;5003437;28;20030;-76
2022/05/02 03:59:52;;;;;;;8.43;5.65;;;;;;;;;;4999489;28;20037;-75
2022/05/02 04:02:18;;;;;;;10.95;5.82;;;;;;;;;;4997680;28;20048;-75
2022/05/02 04:04:44;;;;;;;10.70;5.28;;;;;;;;;;5005857;28;20056;-74
2022/05/02 04:07:10;;;;;;;9.07;5.95;;;;;;;;;;5008192;28;20042;-75
2022/05/02 04:09:35;;;;;;;9.13;5.78;;;;;;;;;;5007158;28;20017;-74
2022/05/02 04:12:01;;;;;;;8.23;5.75;;;;;;;;;;4997541;28;20049;-76
2022/05/02 04:14:27;;;;;;;7.68;5.40;;;;;;;;;;4998202;28;20477;-76
2022/05/02 04:16:53;;;;;;;7.35;4.95;;;;;;;;;;4999672;28;20022;-78
2022/05/02 04:19:19;;;;;;;6.93;5.20;;;;;;;;;;5010280;28;20037;-77
2022/05/02 04:21:45;;;;;;;8.98;5.60;;;;;;;;;;5008284;28;20030;-77
2022/05/02 04:24:11;;;;;;;10.95;6.47;;;;;;;;;;5004841;28;20088;-76
2022/05/02 04:26:37;;;;;;;8.50;5.72;;;;;;;;;;5017249;23;20030;-71
2022/05/02 04:29:03;;;;;;;10.30;5.57;;;;;;;;;;5009011;28;20030;-72
2022/05/02 04:31:29;;;;;;;8.43;5.40;;;;;;;;;;5011296;28;20104;-71
2022/05/02 04:33:55;;;;;;;8.60;5.40;;;;;;;;;;5009998;28;20026;-71
2022/05/02 04:36:21;;;;;;;9.60;6.00;;;;;;;;;;5010250;28;20041;-70
2022/05/02 04:38:47;;;;;;;8.30;5.57;;;;;;;;;;5008257;28;20096;-72
2022/05/02 04:41:14;;;;;;;8.57;5.05;;;;;;;;;;5012395;28;20097;-70
2022/05/02 04:43:41;;;;;;;6.13;4.75;;;;;;;;;;5010728;28;20068;-73
2022/05/02 04:46:08;;;;;;;9.38;5.00;;;;;;;;;;5010985;28;20542;-72
2022/05/02 04:48:34;;;;;;;6.63;4.55;;;;;;;;;;5007468;28;20022;-72
2022/05/02 04:51:00;;;;;;;5.93;4.18;;;;;;;;;;5009569;28;20021;-71
2022/05/02 04:53:26;;;;;;;8.27;5.43;;;;;;;;;;5010275;28;20017;-74
2022/05/02 04:55:52;;;;;;;8.68;5.00;;;;;;;;;;5006062;28;20129;-70
2022/05/02 04:58:18;;;;;;;7.55;4.82;;;;;;;;;;5011383;28;20080;-72
2022/05/02 05:00:44;;;;;;;7.00;4.75;;;;;;;;;;5011739;28;20064;-71
2022/05/02 05:03:10;;;;;;;7.78;4.70;;;;;;;;;;5014387;28;20022;-73
2022/05/02 05:05:36;;;;;;;7.38;4.57;;;;;;;;;;5009619;28;20041;-69
2022/05/02 05:08:02;;;;;;;10.18;5.43;;;;;;;;;;5011325;28;20014;-71
2022/05/02 05:10:28;;;;;;;6.57;5.20;;;;;;;;;;5012421;28;20029;-71
2022/05/02 05:13:07;;;;;;;8.75;5.05;;;;;;;;;;5010914;28;20018;-73
2022/05/02 05:18:49;;;;;;;9.93;5.22;;;;;;;;;;5012159;28;20037;-72
2022/05/02 05:21:15;;;;;;;8.32;4.70;;;;;;;;;;5023992;28;20041;-73
2022/05/02 05:23:41;;;;;;;9.82;4.90;;;;;;;;;;5009148;28;20391;-71
2022/05/02 05:26:11;;;;;;;8.23;5.47;;;;;;;;;;5008847;28;20037;-72
2022/05/02 05:28:49;;;;;;;13.25;5.20;;;;;;;;;;5008737;28;20257;-74
2022/05/02 05:31:24;;;;;;;10.13;5.25;;;;;;;;;;5014192;28;20132;-73
2022/05/02 05:33:51;;;;;;;10.73;5.53;;;;;;;;;;5014034;28;20934;-71
2022/05/02 05:36:43;;;;;;;9.00;5.55;;;;;;;;;;5010394;28;20030;-74
2022/05/02 05:39:21;;;;;;;10.18;5.22;;;;;;;;;;5010598;28;20033;-73
2022/05/02 05:41:47;;;;;;;12.13;5.70;;;;;;;;;;5010406;28;20022;-72
2022/05/02 05:44:25;;;;;;;5.95;4.30;;;;;;;;;;5010329;28;20018;-71
2022/05/02 05:47:01;;;;;;;11.00;5.28;;;;;;;;;;5025996;28;20057;-73
2022/05/02 05:49:35;;;;;;;8.55;5.18;;;;;;;;;;5001106;28;20026;-73
2022/05/02 05:52:24;;;;;;;6.90;4.75;;;;;;;;;;5019918;28;20025;-72
2022/05/02 05:55:01;;;;;;;8.15;5.05;;;;;;;;;;4991389;28;20165;-73
2022/05/02 05:57:27;;;;;;;9.40;4.28;;;;;;;;;;5009776;28;20491;-73
2022/05/02 06:00:02;;;;;;;6.35;4.30;;;;;;;;;;5010920;28;20068;-73
2022/05/02 06:02:36;;;;;;;13.65;5.07;;;;;;;;;;5012663;28;20391;-72
2022/05/02 06:05:02;;;;;;;8.15;4.93;;;;;;;;;;5014083;28;20030;-74
2022/05/02 06:07:29;;;;;;;9.20;5.50;;;;;;;;;;5013538;28;20116;-73
2022/05/02 06:09:57;;;;;;;6.13;4.72;;;;;;;;;;5022683;28;20044;-73
2022/05/02 06:12:24;;;;;;;8.27;5.15;;;;;;;;;;5034599;28;20034;-72
2022/05/02 06:20:29;;;;;;;6.38;5.00;;;;;;;;;;5024258;28;20044;-71
2022/05/02 06:22:57;;;;;;;12.88;5.18;;;;;;;;;;5031090;28;20070;-71
2022/05/02 06:25:24;;;;;;;9.30;4.78;;;;;;;;;;4994745;28;20110;-72
2022/05/02 06:27:50;;;;;;;8.20;5.30;;;;;;;;;;5009453;28;20485;-73
2022/05/02 06:30:16;;;;;;;6.85;5.15;;;;;;;;;;5024980;28;20125;-74
2022/05/02 06:32:44;;;;;;;10.18;5.60;;;;;;;;;;5032797;28;20025;-73
2022/05/02 06:35:10;;;;;;;8.93;5.63;;;;;;;;;;5027753;28;20029;-75
2022/05/02 06:37:37;;;;;;;8.15;5.80;;;;;;;;;;5031573;28;20087;-73
2022/05/02 06:40:04;;;;;;;13.30;5.45;;;;;;;;;;5030396;28;20026;-74
2022/05/02 06:42:36;;;;;;;9.15;5.65;;;;;;;;;;5033566;28;20561;-73
2022/05/02 06:45:22;;;;;;;8.68;5.35;;;;;;;;;;5024702;28;20036;-75
2022/05/02 06:48:04;;;;;;;31.25;18.08;;;;;;;;;;5030496;28;20025;-75
2022/05/02 06:50:32;;;;;;;10.88;6.97;;;;;;;;;;5032518;28;20021;-76
2022/05/02 06:53:07;;;;;;;19.23;9.30;;;;;;;;;;5032490;28;20411;-76
2022/05/02 06:55:36;;;;;;;13.88;8.70;;;;;;;;;;5024123;28;20034;-76
2022/05/02 06:58:17;;;;;;;10.70;5.40;;;;;;;;;;5022073;28;20601;-77
2022/05/02 07:00:48;;;;;;;15.17;7.40;;;;;;;;;;5006957;28;20098;-75
2022/05/02 07:03:14;;;;;;;;;;;;;;;;;;5033145;28;20036;-75
2022/05/02 07:05:49;;;;;;;10.20;5.97;;;;;;;;;;5032501;28;19995;-75
2022/05/02 07:08:29;;;;;;;14.10;6.20;;;;;;;;;;5026378;28;20025;-73
2022/05/02 07:10:58;;;;;;;12.90;6.40;;;;;;;;;;5032052;28;20480;-73
2022/05/02 07:13:33;;;;;;;10.02;5.68;;;;;;;;;;5031769;28;20026;-73
2022/05/02 07:16:17;;;;;;;9.27;5.75;;;;;;;;;;5020458;28;20081;-75
2022/05/02 07:18:53;;;;;;;6.93;5.50;;;;;;;;;;5008478;28;20029;-74
2022/05/02 07:21:40;;;;;;;11.13;6.53;;;;;;;;;;5031806;28;20503;-76
2022/05/02 07:24:27;;;;;;;11.52;5.30;;;;;;;;;;5008453;28;20026;-73
2022/05/02 07:27:06;;;;;;;30.98;8.30;;;;;;;;;;5000352;28;20061;-74
2022/05/02 07:29:33;;;;;;;9.85;5.60;;;;;;;;;;5031653;28;20053;-74
2022/05/02 07:32:01;;;;;;;11.80;6.38;;;;;;;;;;5031410;28;20040;-74
2022/05/02 07:34:29;;;;;;;8.93;5.78;;;;;;;;;;5028415;28;20075;-73
2022/05/02 07:36:56;;;;;;;12.60;5.60;;;;;;;;;;5031205;28;20068;-77
2022/05/02 07:39:24;;;;;;;16.55;6.78;;;;;;;;;;5029128;28;20471;-75
2022/05/02 07:41:50;;;;;;;10.27;6.32;;;;;;;;;;5023637;28;20063;-75
2022/05/02 07:44:17;;;;;;;23.48;12.93;;;;;;;;;;5031736;28;20041;-74
2022/05/02 07:46:45;;;;;;;33.88;21.25;;;;;;;;;;5031798;28;20053;-72
2022/05/02 07:49:14;;;;;;;8.27;5.47;;;;;;;;;;5031410;28;20017;-73
2022/05/02 07:51:47;;;;;;;8.23;5.93;;;;;;;;;;5032132;28;20485;-72
2022/05/02 07:54:17;;;;;;;9.32;5.63;;;;;;;;;;5032689;28;20037;-73
2022/05/02 07:56:46;;;;;;;13.90;6.70;;;;;;;;;;5031910;28;20025;-72
2022/05/02 07:59:14;;;;;;;31.77;15.82;;;;;;;;;;5031011;28;20061;-74
2022/05/02 08:01:40;;;;;;;18.13;11.73;;;;;;;;;;5031782;28;20036;-74
2022/05/02 08:04:07;;;;;;;10.05;6.45;;;;;;;;;;5031726;28;20029;-75
2022/05/02 08:06:35;;;;;;;28.58;16.70;;;;;;;;;;5030478;28;20053;-75
2022/05/02 08:09:16;;;;;;;7.63;5.68;;;26.80;27.70;;;;;;5031029;28;20049;-72
2022/05/02 08:11:51;;;;;;;;;;;27.90;26.10;;;;;;5031946;28;20021;-73
2022/05/02 08:14:39;;;;;;;13.00;5.57;;;28.70;25.90;;;;;;5032059;28;19905;-73
2022/05/02 08:17:38;;;;;;;11.27;5.78;;;29.10;24.80;;;;;;5020536;28;20399;-72
2022/05/02 08:20:07;;;;;;;9.70;5.72;;;;;;;;;;5031469;28;20104;-76
2022/05/02 08:28:41;;;;;;;19.10;11.30;;;;;;;;;;5030117;28;20526;-74
2022/05/02 08:31:21;;;;;;;27.02;16.60;;;;;;;;;;5031167;28;20400;-76
2022/05/02 08:33:56;;;;;;;9.15;6.10;;;;;;;;;;5031393;28;20497;-75
2022/05/02 08:36:30;;;;;;;9.52;5.38;;;;;;;;;;5027131;28;20494;-76
2022/05/02 08:38:59;;;;;;;10.75;6.32;;;;;;;;;;5030608;28;20029;-79
2022/05/02 08:41:29;;;;;;;12.93;8.60;;;;;;;;;;5031683;28;20032;-74
2022/05/02 08:43:58;;;;;;;7.40;5.60;;;;;;;;;;5032626;28;20092;-72
2022/05/02 08:46:56;;;;;;;28.63;16.88;;;;;;;;;;5032118;28;20041;-73
2022/05/02 08:49:36;;;;;;;15.23;6.25;;;;;;;;;;4987006;28;20075;-73
2022/05/02 08:52:11;;;;;;;9.25;6.03;;;;;;;;;;5031354;28;20013;-73
2022/05/02 08:54:49;;;;;;;10.57;5.53;;;;;;;;;;5031498;28;20075;-71
2022/05/02 08:57:26;;;;;;;12.52;8.73;;;;;;;;;;5031050;28;20432;-74
2022/05/02 09:00:04;;;;;;;10.65;6.47;;;;;;;;;;5032221;28;20057;-73
2022/05/02 09:02:30;;;;;;;8.00;5.28;;;;;;;;;;5031021;28;20573;-73
2022/05/02 09:04:56;;;;;;;12.65;5.97;;;;;;;;;;5031758;28;20364;-73
2022/05/02 09:07:40;;;;;;;11.18;5.63;;;;;;;;;;5031128;28;20031;-74
2022/05/02 09:10:24;;;;;;;12.68;6.40;;;;;;;;;;5032041;28;20048;-74
2022/05/02 09:13:09;;;;;;;7.22;5.97;;;;;;;;;;5031746;28;20032;-71
2022/05/02 09:15:47;;;;;;;6.07;5.38;;;;;;;;;;5031871;28;20475;-72
2022/05/02 09:18:25;;;;;;;8.43;5.30;;;;;;;;;;5031204;28;20024;-73
2022/05/02 09:21:16;;;;;;;13.48;7.10;;;;;;;;;;5031664;28;20096;-71
2022/05/02 09:23:52;;;;;;;8.50;5.50;;;;;;;;;;5031836;28;20025;-73
2022/05/02 09:26:36;;;;;;;8.85;5.63;;;;;;;;;;5031349;28;20057;-74
2022/05/02 09:29:08;;;;;;;10.70;5.85;;;;;;;;;;5030316;28;20073;-73
2022/05/02 09:31:52;;;;;;;10.85;5.22;;;;;;;;;;5030271;28;20036;-73
2022/05/02 09:34:19;;;;;;;8.80;5.38;;;;;;;;;;5031881;28;20038;-73
2022/05/02 09:37:04;;;;;;;6.72;5.43;;;;;;;;;;5035292;28;20033;-74
2022/05/02 09:39:46;;;;;;;8.15;5.25;;;;;;;;;;5035919;28;20057;-72
2022/05/02 09:42:21;;;;;;;11.57;5.18;;;;;;;;;;5035116;28;20108;-72
2022/05/02 09:50:25;;;;;;;8.98;4.95;;;;;;;;;;5035284;28;20165;-72
2022/05/02 09:53:10;;;;;;;10.02;5.30;;;;;;;;;;5035342;28;20025;-71
2022/05/02 09:58:26;;;;;;;11.07;5.45;;;;;;;;;;5034459;28;20556;-73
2022/05/02 10:01:06;;;;;;;9.05;5.50;;;;;;;;;;5036133;28;20060;-69
2022/05/02 10:03:39;;;;;;;9.73;5.75;;;;;;;;;;5035559;28;20025;-72
2022/05/02 10:06:05;;;;;;;12.18;6.25;;;;;;;;;;5034961;28;20391;-70
2022/05/02 10:08:37;;;;;;;12.20;5.45;;;;;;;;;;5034340;28;20026;-73
2022/05/02 10:11:07;;;;;;;10.82;6.25;;;;;;;;;;5034800;28;20384;-73
2022/05/02 10:13:49;;;;;;;11.43;6.45;;;;;;;;;;5034948;28;20024;-70
2022/05/02 10:16:24;;;;;;;13.35;8.25;;;;;;;;;;5035118;28;20029;-71
2022/05/02 10:18:59;;;;;;;10.85;5.72;;;;;;;;;;5034561;28;20030;-71
2022/05/02 10:21:39;;;;;;;17.42;6.88;;;;;;;;;;5034966;28;20065;-72
2022/05/02 10:24:08;;;;;;;8.35;5.30;;;;;;;;;;5016582;28;20515;-72
2022/05/02 10:26:41;;;;;;;15.57;6.78;;;;;;;;;;4993674;28;20030;-72
2022/05/02 10:29:26;;;;;;;9.77;5.60;;;;;;;;;;5041241;23;20068;-77
2022/05/02 10:32:01;;;;;;;10.05;5.72;;;;;;;;;;5036086;28;20032;-78
2022/05/02 10:34:29;;;;;;;12.55;7.05;;;;;;;;;;5035769;28;20026;-77
2022/05/02 10:36:56;;;;;;;11.27;6.00;;;;;;;;;;5035178;28;20029;-76
2022/05/02 10:39:25;;;;;;;8.82;5.65;;;;;;;;;;5033097;28;20056;-78
2022/05/02 10:42:06;;;;;;;9.00;5.72;;;;;;;;;;5027799;28;20041;-78
2022/05/02 10:44:52;;;;;;;12.02;6.45;;;;;;;;;;5016582;28;20113;-78
2022/05/02 10:47:25;;;;;;;7.32;6.20;;;;;;;;;;5012653;28;20417;-76
2022/05/02 10:49:54;;;;;;;9.00;5.88;;;;;;;;;;5012816;28;20018;-77
2022/05/02 10:52:43;;;;;;;12.25;7.15;;;;;;;;;;5023055;28;20125;-76
2022/05/02 10:55:13;;;;;;;11.07;6.28;;;;;;;;;;5006474;28;20142;-77
2022/05/02 10:57:39;;;;;;;13.85;6.25;;;;;;;;;;5043500;28;20026;-77
2022/05/02 11:00:07;;;;;;;11.15;5.95;;;;;;;;;;5041009;28;20034;-76
2022/05/02 11:02:42;;;;;;;11.80;6.55;;;;;;;;;;5039329;28;20040;-77
2022/05/02 11:05:14;;;;;;;13.05;6.68;;;;;;;;;;5035013;28;20056;-76
2022/05/02 11:07:44;;;;;;;8.80;5.68;;;;;;;;;;5034019;28;20033;-76
2022/05/02 11:10:11;;;;;;;10.73;5.20;;;;;;;;;;5029904;28;20043;-77
2022/05/02 11:12:40;;;;;;;12.30;5.70;;;;;;;;;;5034667;28;20506;-77
2022/05/02 11:15:24;;;;;;;10.45;5.80;;;;;;;;;;5034932;28;20113;-76
2022/05/02 11:17:56;;;;;;;7.05;5.30;;;;;;;;;;5033678;28;20028;-77
2022/05/02 11:20:41;;;;;;;16.70;10.35;;;;;;;;;;5034241;28;20537;-77
2022/05/02 11:23:22;;;;;;;8.63;6.07;;;;;;;;;;5034313;28;20407;-77
2022/05/02 11:25:57;;;;;;;8.90;5.60;;;;;;;;;;5034019;28;20033;-77
2022/05/02 11:28:41;;;;;;;10.65;5.95;;;;;;;;;;5032491;28;20037;-77
2022/05/02 11:31:10;;;;;;;9.98;5.93;;;;;;;;;;5033356;28;20095;-77
2022/05/02 11:33:40;;;;;;;15.60;8.50;;;;;;;;;;5036209;28;20121;-77
2022/05/02 11:36:09;;;;;;;9.50;5.13;;;;;;;;;;5035271;28;20095;-77
2022/05/02 11:38:47;;;;;;;16.02;5.90;;;;;;;;;;5032221;28;20083;-77
2022/05/02 11:41:18;;;;;;;11.38;5.70;;;;;;;;;;5035032;28;20669;-77
2022/05/02 11:43:44;;;;;;;6.32;5.22;;;;;;;;;;5033036;28;20425;-77
2022/05/02 11:46:14;;;;;;;10.70;5.40;;;;;;;;;;5032579;28;20104;-77
2022/05/02 11:48:58;;;;;;;16.38;10.48;;;;;;;;;;5030523;28;20105;-76
2022/05/02 11:51:30;;;;;;;12.98;8.20;;;;;;;;;;5032746;28;20036;-77
2022/05/02 11:53:58;;;;;;;7.43;5.50;;;;;;;;;;5032685;28;20025;-77
2022/05/02 11:56:33;;;;;;;10.82;6.57;;;;;;;;;;5032648;28;20075;-76
2022/05/02 11:59:05;;;;;;;9.73;6.63;;;;;;;;;;5030190;28;20057;-76
2022/05/02 12:01:37;;;;;;;12.82;7.07;;;;;;;;;;5032967;28;20135;-76
2022/05/02 12:04:04;;;;;;;9.80;5.68;;;;;;;;;;5028489;28;20071;-77
2022/05/02 12:06:36;;;;;;;13.20;5.55;;;;;;;;;;5030693;28;20605;-77
2022/05/02 12:09:07;;;;;;;12.93;8.57;;;;;;;;;;5031652;28;20052;-77
2022/05/02 12:11:50;;;;;;;9.65;5.50;;;;;;;;;;5039184;28;20026;-77
2022/05/02 12:14:21;;;;;;;8.65;5.55;;;;;;;;;;5038582;28;20064;-77
2022/05/02 12:17:06;;;;;;;12.43;6.03;;;;;;;;;;5032561;28;20045;-76
2022/05/02 12:19:33;;;;;;;9.32;5.25;;;;;;;;;;5026095;28;20255;-77
2022/05/02 12:22:01;;;;;;;7.40;5.28;;;;;;;;;;5033375;28;20021;-77
2022/05/02 12:24:28;;;;;;;8.02;5.00;;;;;;;;;;5038321;28;20033;-77
2022/05/02 12:26:55;;;;;;;9.23;6.18;;;;;;;;;;5042484;28;20032;-77
2022/05/02 12:29:23;;;;;;;10.75;5.35;;;;;;;;;;5037812;28;20045;-77
2022/05/02 12:31:55;;;;;;;7.70;5.25;;;;;;;;;;5043635;28;20021;-77
2022/05/02 12:34:21;;;;;;;10.27;4.75;;;;;;;;;;5040689;28;20091;-77
2022/05/02 12:36:47;;;;;;;8.90;5.18;;;;;;;;;;5028239;28;20026;-77
2022/05/02 12:39:14;;;;;;;9.40;5.38;;;;;;;;;;5021302;28;20033;-77
2022/05/02 12:41:50;;;;;;;12.30;7.75;;;;;;;;;;5029283;28;20017;-77
2022/05/02 12:44:17;;;;;;;15.93;6.05;;;;;;;;;;5014930;28;20033;-75
2022/05/02 12:46:45;;;;;;;10.55;5.35;;;;;;;;;;5015190;28;20028;-78
2022/05/02 12:49:12;;;;;;;12.25;8.88;;;;;;;;;;5014050;28;20065;-78
2022/05/02 12:51:38;;;;;;;7.10;5.28;;;;;;;;;;5015159;28;20101;-78
2022/05/02 12:54:14;;;;;;;13.07;8.30;;;;;;;;;;5020182;28;20022;-77
2022/05/02 13:02:37;;;;;;;8.20;5.13;;;;;;;;;;5012864;28;20407;-77
2022/05/02 13:05:07;;;;;;;8.52;5.10;;;;;;;;;;5011957;28;20029;-77
2022/05/02 13:07:46;;;;;;;12.85;5.50;;;;;;;;;;5011008;28;20105;-77
2022/05/02 13:10:20;;;;;;;5.97;4.32;;;;;;;;;;5014500;28;20437;-78
2022/05/02 13:12:59;;;;;;;10.15;4.78;;;;;;;;;;5017738;28;20076;-77
2022/05/02 13:15:29;;;;;;;7.20;4.97;;;;;;;;;;5017811;28;20028;-77
2022/05/02 13:18:01;;;;;;;7.37;4.57;;;;;;;;;;5016763;28;20065;-77
2022/05/02 13:20:27;;;;;;;;;;;;;;;;;;5017161;28;20100;-77
2022/05/02 13:23:00;;;;;;;7.13;5.28;;;;;;;;;;5019200;28;19964;-77
2022/05/02 13:25:46;;;;;;;8.20;5.05;;;;;;;;;;5019183;28;20104;-78
2022/05/02 13:28:16;;;;;;;9.63;5.22;;;;;;;;;;5018159;28;20101;-78
2022/05/02 13:30:46;;;;;;;9.60;5.60;;;;;;;;;;5023119;28;20022;-77
2022/05/02 13:33:13;;;;;;;8.10;4.53;;;;;;;;;;5016817;28;20030;-77
2022/05/02 13:35:41;;;;;;;8.32;4.93;;;;;;;;;;5018958;28;20417;-77
2022/05/02 13:38:19;;;;;;;5.95;4.93;;;;;;;;;;5017109;28;20431;-77
2022/05/02 13:40:51;;;;;;;7.13;4.55;;;;;;;;;;5017922;28;20104;-77
2022/05/02 13:43:36;;;;;;;12.60;6.18;;;;;;;;;;5018171;28;20476;-77
2022/05/02 13:46:16;;;;;;;7.85;5.03;;;;;;;;;;5017815;28;20029;-77
2022/05/02 13:48:54;;;;;;;7.38;4.93;;;;;;;;;;5016053;28;20030;-77
2022/05/02 13:51:29;;;;;;;6.65;4.47;;;;;;;;;;5016970;28;20060;-77
2022/05/02 13:54:07;;;;;;;8.30;5.40;;;;;;;;;;5033378;28;20049;-77
2022/05/02 13:56:33;;;;;;;8.50;5.70;;;;;;;;;;5016149;28;20050;-77
2022/05/02 13:59:02;;;;;;;8.63;5.13;;;;;;;;;;5029720;28;20022;-76
2022/05/02 14:01:47;;;;;;;12.82;7.88;;;;;;;;;;5017890;28;20400;-78
2022/05/02 14:04:21;;;;;;;9.57;4.38;;;;;;;;;;5018324;28;20029;-78
2022/05/02 14:09:33;;;;;;;9.63;5.45;;;;;;;;;;5017163;28;20046;-78
2022/05/02 14:11:59;;;;;;;7.95;4.47;;;;;;;;;;5016839;28;20153;-77
2022/05/02 14:14:25;;;;;;;10.25;4.47;;;;;;;;;;5017877;28;20030;-78
2022/05/02 14:16:54;;;;;;;7.88;4.68;;;;;;;;;;5031471;28;20034;-76
2022/05/02 14:19:25;;;;;;;9.65;4.68;;;;;;;;;;5013971;28;20321;-77
2022/05/02 14:21:51;;;;;;;7.80;4.60;;;;;;;;;;5013919;28;20105;-78
2022/05/02 14:24:21;;;;;;;9.43;4.57;;;;;;;;;;5014207;28;20041;-77
2022/05/02 14:26:58;;;;;;;8.57;4.95;;;;;;;;;;5029559;28;20037;-77
2022/05/02 14:29:30;;;;;;;7.03;5.03;;;;;;;;;;5029353;28;20030;-77
2022/05/02 14:32:04;;;;;;;6.00;4.90;;;;;;;;;;5014346;28;20053;-77
2022/05/02 14:34:39;;;;;;;11.48;5.47;;;;;;;;;;5029722;28;20483;-77
2022/05/02 14:37:06;;;;;;;6.65;4.88;;;;;;;;;;5024729;28;20030;-78
2022/05/02 14:39:33;;;;;;;9.57;4.60;;;;;;;;;;5033948;28;20033;-76
2022/05/02 14:41:59;;;;;;;12.35;4.97;;;;;;;;;;5034517;28;20049;-77
2022/05/02 14:44:26;;;;;;;8.75;5.68;;;;;;;;;;5033292;28;20052;-77
2022/05/02 14:46:52;;;;;;;7.40;5.18;;;;;;;;;;5034605;28;20056;-77
2022/05/02 14:49:19;;;;;;;10.57;5.13;;;;;;;;;;5033855;28;20034;-77
2022/05/02 14:51:50;;;;;;;8.80;4.82;;;;;;;;;;5033747;28;20442;-77
2022/05/02 14:54:18;;;;;;;6.43;4.75;;;;;;;;;;5034832;28;20025;-77
2022/05/02 14:56:46;;;;;;;6.93;5.07;;;;;;;;;;5032686;28;20057;-76
2022/05/02 14:59:13;;;;;;;7.85;4.65;;;;;;;;;;5032586;28;20021;-77
2022/05/02 15:01:40;;;;;;;7.82;5.07;;;;;;;;;;5033250;28;20045;-76
2022/05/02 15:04:09;;;;;;;10.05;4.75;;;;;;;;;;5034597;28;20071;-76
2022/05/02 15:06:36;;;;;;;9.32;5.53;;;;;;;;;;5032896;28;20060;-77
2022/05/02 15:09:05;;;;;;;6.45;4.45;;;;;;;;;;5030959;28;20108;-77
2022/05/02 15:11:40;;;;;;;8.57;4.85;;;;;;;;;;5031824;28;20113;-76
2022/05/02 15:14:24;;;;;;;8.10;4.90;;;;;;;;;;5033097;28;20018;-77
2022/05/02 15:17:09;;;;;;;14.80;5.32;;;;;;;;;;5034076;28;20057;-78
2022/05/02 15:19:54;;;;;;;11.55;4.88;;;;;;;;;;5032571;28;20025;-76
2022/05/02 15:22:24;;;;;;;8.30;4.97;;;;;;;;;;5033984;28;20029;-77
2022/05/02 15:25:13;;;;;;;8.20;5.82;;;;;;;;;;5033494;28;20427;-78
2022/05/02 15:36:46;;;;;;;19.30;5.22;;;;;;;;;;5033170;28;20045;-77
2022/05/02 15:39:27;;;;;;;13.27;5.03;;;;;;;;;;5032014;28;20021;-77
2022/05/02 15:41:56;;;;;;;8.38;6.18;;;;;;;;;;5033033;28;20026;-76
2022/05/02 15:44:35;;;;;;;9.02;4.93;;;;;;;;;;5032095;28;20052;-78
2022/05/02 15:47:05;;;;;;;13.18;6.15;;;;;;;;;;5034324;28;20041;-76